createdAt,value
2023-04-18T00:01:44.548Z,3.83
2023-04-18T00:04:12.430Z,3.81
2023-04-18T00:06:39.993Z,3.64
2023-04-18T00:09:06.693Z,3.58
2023-04-18T00:11:34.339Z,3.58
2023-04-18T00:14:00.973Z,3.56
2023-04-18T00:16:28.318Z,3.49
2023-04-18T00:18:55.443Z,3.42
2023-04-18T00:21:22.667Z,3.47
2023-04-18T00:23:49.328Z,3.40
2023-04-18T00:26:15.940Z,3.26
2023-04-18T00:28:42.542Z,3.19
2023-04-18T00:31:09.280Z,3.16
2023-04-18T00:33:35.914Z,3.32
2023-04-18T00:36:02.576Z,3.18
2023-04-18T00:38:29.183Z,2.97
2023-04-18T00:40:55.830Z,3.00
2023-04-18T00:43:23.868Z,3.09
2023-04-18T00:45:50.691Z,3.19
2023-04-18T00:48:17.615Z,3.08
2023-04-18T00:50:44.549Z,3.05
2023-04-18T00:53:11.184Z,3.04
2023-04-18T00:55:38.695Z,2.99
2023-04-18T00:58:06.227Z,2.97
2023-04-18T01:00:32.976Z,2.87
2023-04-18T01:02:59.802Z,2.94
2023-04-18T01:05:27.031Z,2.94
2023-04-18T01:07:58.677Z,2.84
2023-04-18T01:10:25.522Z,2.81
2023-04-18T01:13:10.150Z,2.75
2023-04-18T01:15:37.102Z,2.71
2023-04-18T01:18:03.885Z,2.72
2023-04-18T01:20:31.303Z,2.71
2023-04-18T01:22:58.233Z,2.69
2023-04-18T01:25:24.941Z,2.67
2023-04-18T01:27:51.646Z,2.68
2023-04-18T01:30:18.378Z,2.58
2023-04-18T01:32:48.075Z,2.49
2023-04-18T01:35:14.697Z,2.37
2023-04-18T01:37:41.333Z,2.41
2023-04-18T01:40:08.674Z,2.32
2023-04-18T01:42:35.327Z,2.65
2023-04-18T01:45:02.033Z,2.71
2023-04-18T01:47:28.648Z,2.65
2023-04-18T01:49:55.618Z,2.50
2023-04-18T01:52:22.307Z,2.45
2023-04-18T01:54:48.936Z,2.45
2023-04-18T01:57:15.511Z,2.60
2023-04-18T01:59:42.121Z,2.77
2023-04-18T02:02:08.797Z,2.78
2023-04-18T02:04:35.841Z,2.74
2023-04-18T02:07:02.503Z,2.76
2023-04-18T02:09:29.135Z,2.65
2023-04-18T02:11:59.268Z,2.78
2023-04-18T02:14:27.224Z,2.67
2023-04-18T02:16:53.871Z,2.77
2023-04-18T02:19:20.543Z,2.75
2023-04-18T02:21:47.136Z,2.78
2023-04-18T02:24:13.891Z,2.72
2023-04-18T02:26:40.760Z,2.88
2023-04-18T02:29:07.460Z,2.70
2023-04-18T02:31:34.139Z,2.58
2023-04-18T02:34:00.769Z,2.67
2023-04-18T02:36:28.208Z,2.70
2023-04-18T02:38:55.036Z,2.85
2023-04-18T02:41:21.758Z,2.86
2023-04-18T02:43:48.410Z,2.73
2023-04-18T02:46:15.210Z,2.78
2023-04-18T02:48:41.942Z,2.71
2023-04-18T02:51:08.896Z,2.66
2023-04-18T02:53:35.620Z,2.66
2023-04-18T02:56:03.302Z,2.74
2023-04-18T02:58:30.036Z,2.66
2023-04-18T03:00:56.866Z,2.64
2023-04-18T03:03:23.571Z,2.81
2023-04-18T03:05:50.327Z,2.88
2023-04-18T03:08:17.028Z,2.87
2023-04-18T03:10:43.721Z,2.91
2023-04-18T03:13:10.371Z,2.98
2023-04-18T03:15:37.420Z,2.91
2023-04-18T03:18:05.740Z,3.03
2023-04-18T03:20:32.446Z,2.99
2023-04-18T03:22:59.094Z,2.78
2023-04-18T03:25:25.836Z,3.08
2023-04-18T03:27:52.449Z,3.03
2023-04-18T03:30:19.058Z,2.90
2023-04-18T03:32:46.661Z,3.02
2023-04-18T03:35:13.437Z,3.14
2023-04-18T03:37:40.040Z,3.30
2023-04-18T03:40:07.140Z,3.28
2023-04-18T03:42:33.794Z,3.27
2023-04-18T03:45:00.400Z,3.21
2023-04-18T03:47:27.021Z,3.28
2023-04-18T03:49:54.458Z,3.29
2023-04-18T03:52:21.071Z,3.28
2023-04-18T03:54:47.836Z,3.44
2023-04-18T03:57:14.754Z,3.49
2023-04-18T03:59:41.807Z,3.47
2023-04-18T04:02:08.530Z,3.47
2023-04-18T04:04:35.399Z,3.43
2023-04-18T04:07:02.174Z,3.50
2023-04-18T04:09:28.890Z,3.39
2023-04-18T04:11:55.525Z,3.36
2023-04-18T04:14:22.892Z,3.43
2023-04-18T04:16:49.581Z,3.44
2023-04-18T04:19:16.336Z,3.61
2023-04-18T04:21:42.953Z,3.75
2023-04-18T04:24:09.615Z,3.65
2023-04-18T04:26:36.307Z,3.59
2023-04-18T04:29:03.658Z,3.60
2023-04-18T04:31:30.310Z,3.64
2023-04-18T04:33:56.956Z,3.74
2023-04-18T04:36:24.849Z,3.65
2023-04-18T04:38:52.392Z,3.88
2023-04-18T04:41:19.175Z,3.89
2023-04-18T04:43:46.679Z,3.97
2023-04-18T04:46:13.882Z,3.92
2023-04-18T04:48:40.872Z,3.93
2023-04-18T04:51:07.618Z,3.97
2023-04-18T04:53:34.427Z,4.05
2023-04-18T04:56:01.098Z,4.11
2023-04-18T04:58:28.144Z,4.17
2023-04-18T05:00:55.008Z,4.27
2023-04-18T05:03:22.123Z,4.31
2023-04-18T05:05:49.079Z,4.42
2023-04-18T05:08:15.847Z,4.41
2023-04-18T05:10:43.595Z,4.41
2023-04-18T05:13:10.373Z,4.48
2023-04-18T05:15:37.589Z,4.64
2023-04-18T05:18:04.543Z,4.67
2023-04-18T05:20:31.243Z,4.79
2023-04-18T05:22:57.947Z,4.70
2023-04-18T05:25:24.654Z,4.64
2023-04-18T05:27:52.546Z,4.90
2023-04-18T05:30:19.579Z,4.96
2023-04-18T05:32:46.326Z,5.06
2023-04-18T05:35:13.099Z,5.17
2023-04-18T05:37:39.812Z,5.24
2023-04-18T05:40:09.024Z,5.27
2023-04-18T05:42:35.863Z,5.25
2023-04-18T05:45:02.717Z,5.35
2023-04-18T05:47:30.405Z,5.43
2023-04-18T05:49:57.173Z,5.52
2023-04-18T05:52:25.744Z,5.44
2023-04-18T05:54:53.149Z,5.43
2023-04-18T05:57:19.869Z,5.52
2023-04-18T05:59:46.582Z,5.61
2023-04-18T06:02:13.781Z,5.67
2023-04-18T06:04:45.178Z,5.77
2023-04-18T06:07:12.128Z,5.76
2023-04-18T06:09:38.837Z,5.97
2023-04-18T06:12:05.826Z,6.63
2023-04-18T06:14:32.537Z,6.78
2023-04-18T06:16:59.669Z,7.07
2023-04-18T06:19:26.277Z,7.25
2023-04-18T06:21:53.394Z,6.76
2023-04-18T06:24:20.303Z,7.00
2023-04-18T06:26:47.410Z,7.44
2023-04-18T06:29:14.035Z,8.14
2023-04-18T06:31:42.204Z,8.64
2023-04-18T06:34:09.024Z,8.95
2023-04-18T06:36:36.344Z,9.11
2023-04-18T06:39:03.477Z,8.68
2023-04-18T06:41:30.123Z,8.92
2023-04-18T06:44:02.782Z,8.51
2023-04-18T06:46:30.837Z,8.32
2023-04-18T06:48:57.691Z,8.12
2023-04-18T06:51:24.322Z,7.98
2023-04-18T06:53:53.078Z,7.87
2023-04-18T06:56:20.809Z,7.88
2023-04-18T06:58:48.020Z,7.96
2023-04-18T07:01:14.812Z,8.60
2023-04-18T07:03:41.628Z,8.87
2023-04-18T07:06:10.594Z,9.57
2023-04-18T07:08:37.312Z,8.96
2023-04-18T07:11:04.094Z,8.89
2023-04-18T07:13:30.812Z,8.91
2023-04-18T07:15:57.593Z,8.90
2023-04-18T07:18:36.731Z,8.85
2023-04-18T07:21:07.524Z,8.60
2023-04-18T07:23:34.754Z,8.67
2023-04-18T07:26:02.839Z,8.58
2023-04-18T07:28:30.903Z,8.39
2023-04-18T07:30:57.768Z,8.38
2023-04-18T07:33:24.861Z,8.49
2023-04-18T07:35:52.416Z,8.26
2023-04-18T07:38:19.118Z,8.32
2023-04-18T07:40:45.812Z,8.31
2023-04-18T07:43:12.435Z,8.57
2023-04-18T07:45:39.244Z,8.66
2023-04-18T07:48:06.282Z,8.94
2023-04-18T07:50:32.941Z,8.69
2023-04-18T07:52:59.674Z,8.73
2023-04-18T07:55:26.884Z,8.58
2023-04-18T07:57:53.601Z,8.38
2023-04-18T08:00:20.519Z,8.60
2023-04-18T08:02:47.453Z,8.63
2023-04-18T08:05:14.155Z,8.74
2023-04-18T08:07:40.883Z,8.66
2023-04-18T08:10:07.973Z,8.66
2023-04-18T08:12:36.300Z,8.60
2023-04-18T08:15:03.881Z,8.65
2023-04-18T08:17:31.095Z,8.70
2023-04-18T08:19:57.743Z,8.77
2023-04-18T08:22:24.375Z,8.80
2023-04-18T08:25:03.692Z,8.82
2023-04-18T08:27:32.248Z,8.36
2023-04-18T08:29:58.928Z,8.40
2023-04-18T08:32:25.794Z,8.64
2023-04-18T08:34:52.456Z,8.57
2023-04-18T08:37:19.111Z,8.58
2023-04-18T08:39:45.748Z,8.73
2023-04-18T08:42:16.271Z,8.65
2023-04-18T08:44:43.131Z,8.81
2023-04-18T08:47:09.952Z,9.01
2023-04-18T08:49:36.536Z,9.09
2023-04-18T08:52:09.735Z,8.88
2023-04-18T08:54:37.262Z,8.87
2023-04-18T08:57:07.715Z,8.90
2023-04-18T08:59:35.735Z,8.88
2023-04-18T09:02:04.177Z,8.80
2023-04-18T09:04:35.269Z,8.80
2023-04-18T09:07:03.521Z,8.80
2023-04-18T09:09:47.319Z,8.56
2023-04-18T09:12:19.631Z,8.60
2023-04-18T09:14:47.139Z,8.76
2023-04-18T09:17:18.217Z,8.75
2023-04-18T09:19:49.007Z,8.71
2023-04-18T09:22:17.054Z,8.93
2023-04-18T09:24:53.275Z,8.95
2023-04-18T09:27:22.797Z,9.14
2023-04-18T09:29:54.756Z,9.02
2023-04-18T09:32:26.844Z,8.97
2023-04-18T09:34:58.720Z,9.17
2023-04-18T09:37:26.227Z,9.11
2023-04-18T09:39:53.099Z,9.35
2023-04-18T09:42:20.241Z,9.40
2023-04-18T09:45:06.056Z,9.55
2023-04-18T09:47:37.497Z,9.63
2023-04-18T09:50:05.405Z,9.74
2023-04-18T09:52:39.451Z,9.91
2023-04-18T09:55:11.324Z,10.03
2023-04-18T09:57:41.753Z,10.38
2023-04-18T10:00:24.258Z,10.66
2023-04-18T10:03:10.890Z,11.02
2023-04-18T10:05:39.881Z,11.39
2023-04-18T10:08:07.124Z,11.41
2023-04-18T10:10:33.884Z,11.22
2023-04-18T10:13:02.123Z,11.33
2023-04-18T10:15:29.747Z,11.49
2023-04-18T10:18:05.333Z,11.35
2023-04-18T10:20:34.656Z,11.71
2023-04-18T10:23:34.931Z,11.92
2023-04-18T10:26:03.120Z,11.88
2023-04-18T10:28:49.527Z,11.95
2023-04-18T10:31:16.641Z,11.78
2023-04-18T10:34:03.296Z,11.92
2023-04-18T10:36:31.126Z,12.06
2023-04-18T10:39:23.308Z,11.93
2023-04-18T10:41:51.192Z,11.79
2023-04-18T10:44:23.203Z,11.77
2023-04-18T10:46:53.421Z,11.99
2023-04-18T10:49:28.874Z,12.06
2023-04-18T10:52:01.271Z,12.25
2023-04-18T10:54:47.796Z,12.20
2023-04-18T10:57:15.264Z,12.29
2023-04-18T10:59:44.540Z,12.39
2023-04-18T11:02:32.625Z,12.53
2023-04-18T11:05:01.934Z,12.83
2023-04-18T11:07:40.765Z,12.93
2023-04-18T11:10:09.290Z,13.07
2023-04-18T11:12:37.694Z,13.37
2023-04-18T11:15:12.988Z,13.45
2023-04-18T11:17:40.288Z,13.32
2023-04-18T11:20:13.608Z,13.51
2023-04-18T11:22:44.008Z,13.66
2023-04-18T11:25:11.234Z,13.86
2023-04-18T11:27:37.958Z,13.95
2023-04-18T11:30:05.443Z,14.05
2023-04-18T11:32:34.272Z,14.05
2023-04-18T11:35:01.159Z,13.84
2023-04-18T11:37:27.813Z,13.80
2023-04-18T11:39:54.473Z,13.63
2023-04-18T11:42:27.760Z,13.47
2023-04-18T11:44:54.547Z,13.68
2023-04-18T11:47:34.001Z,13.44
2023-04-18T11:50:02.395Z,13.47
2023-04-18T11:52:30.829Z,13.56
2023-04-18T11:55:18.597Z,13.64
2023-04-18T11:57:52.937Z,13.82
2023-04-18T12:00:22.489Z,13.39
2023-04-18T12:02:50.942Z,13.71
2023-04-18T12:05:29.246Z,13.84
2023-04-18T12:07:56.634Z,13.93
2023-04-18T12:10:26.154Z,13.92
2023-04-18T12:12:54.193Z,13.79
2023-04-18T12:15:23.945Z,13.67
2023-04-18T12:17:53.504Z,13.67
2023-04-18T12:20:20.217Z,13.86
2023-04-18T12:22:50.630Z,13.94
2023-04-18T12:25:27.368Z,13.94
2023-04-18T12:27:59.381Z,13.78
2023-04-18T12:30:27.884Z,13.73
2023-04-18T12:32:56.839Z,13.61
2023-04-18T12:35:23.973Z,13.82
2023-04-18T12:37:52.288Z,13.85
2023-04-18T12:40:19.646Z,13.77
2023-04-18T12:42:47.683Z,13.66
2023-04-18T12:45:15.216Z,13.67
2023-04-18T12:47:43.080Z,13.48
2023-04-18T12:50:11.654Z,13.49
2023-04-18T12:52:40.068Z,13.53
2023-04-18T12:55:07.689Z,13.60
2023-04-18T12:57:34.350Z,13.84
2023-04-18T13:00:01.303Z,13.88
2023-04-18T13:02:29.247Z,14.08
2023-04-18T13:04:56.534Z,14.03
2023-04-18T13:07:23.233Z,14.11
2023-04-18T13:09:49.910Z,14.15
2023-04-18T13:12:16.658Z,14.17
2023-04-18T13:14:43.289Z,14.16
2023-04-18T13:17:09.922Z,14.05
2023-04-18T13:19:36.550Z,13.93
2023-04-18T13:22:03.167Z,13.98
2023-04-18T13:24:29.797Z,14.27
2023-04-18T13:26:56.589Z,14.45
2023-04-18T13:29:33.116Z,14.50
2023-04-18T13:31:59.779Z,14.27
2023-04-18T13:34:26.441Z,14.63
2023-04-18T13:36:53.100Z,14.90
2023-04-18T13:39:20.457Z,15.01
2023-04-18T13:41:47.344Z,14.95
2023-04-18T13:44:14.228Z,14.40
2023-04-18T13:46:41.169Z,14.51
2023-04-18T13:49:07.804Z,14.13
2023-04-18T13:51:34.550Z,14.41
2023-04-18T13:54:01.725Z,14.50
2023-04-18T13:56:28.383Z,14.17
2023-04-18T13:58:55.582Z,14.42
2023-04-18T14:01:22.356Z,14.57
2023-04-18T14:03:50.127Z,14.77
2023-04-18T14:06:17.005Z,14.66
2023-04-18T14:08:43.806Z,14.72
2023-04-18T14:11:10.457Z,14.79
2023-04-18T14:13:37.153Z,14.56
2023-04-18T14:16:03.859Z,14.21
2023-04-18T14:18:30.452Z,14.27
2023-04-18T14:20:57.094Z,14.37
2023-04-18T14:23:23.849Z,14.30
2023-04-18T14:25:50.719Z,14.02
2023-04-18T14:28:19.066Z,13.73
2023-04-18T14:30:45.794Z,13.80
2023-04-18T14:33:12.613Z,14.10
2023-04-18T14:35:39.258Z,14.13
2023-04-18T14:38:05.930Z,14.28
2023-04-18T14:40:33.344Z,14.05
2023-04-18T14:43:00.050Z,13.89
2023-04-18T14:45:26.666Z,13.89
2023-04-18T14:47:55.523Z,13.96
2023-04-18T14:50:23.502Z,14.08
2023-04-18T14:52:51.079Z,13.90
2023-04-18T14:55:19.422Z,14.15
2023-04-18T14:57:46.525Z,13.80
2023-04-18T15:00:14.680Z,13.87
2023-04-18T15:02:41.849Z,13.78
2023-04-18T15:05:09.244Z,14.02
2023-04-18T15:07:39.064Z,14.02
2023-04-18T15:10:06.207Z,14.03
2023-04-18T15:12:32.910Z,14.10
2023-04-18T15:14:59.884Z,13.97
2023-04-18T15:17:26.514Z,13.82
2023-04-18T15:19:53.200Z,13.76
2023-04-18T15:22:19.847Z,13.67
2023-04-18T15:24:47.406Z,13.75
2023-04-18T15:27:14.025Z,13.69
2023-04-18T15:29:40.986Z,13.25
2023-04-18T15:32:08.023Z,13.26
2023-04-18T15:34:34.728Z,13.36
2023-04-18T15:37:02.326Z,13.55
2023-04-18T15:39:28.933Z,13.24
2023-04-18T15:41:55.653Z,13.07
2023-04-18T15:44:22.690Z,12.92
2023-04-18T15:46:49.416Z,12.84
2023-04-18T15:49:16.057Z,12.89
2023-04-18T15:51:42.702Z,12.86
2023-04-18T15:54:09.402Z,12.35
2023-04-18T15:56:36.895Z,12.39
2023-04-18T15:59:04.950Z,12.29
2023-04-18T16:01:32.249Z,12.27
2023-04-18T16:03:59.044Z,12.12
2023-04-18T16:06:26.566Z,12.18
2023-04-18T16:08:53.272Z,12.22
2023-04-18T16:11:21.032Z,12.13
2023-04-18T16:13:47.703Z,12.19
2023-04-18T16:16:14.477Z,11.94
2023-04-18T16:18:44.151Z,11.91
2023-04-18T16:21:16.188Z,12.04
2023-04-18T16:23:43.069Z,11.87
2023-04-18T16:26:09.690Z,11.80
2023-04-18T16:28:37.741Z,11.71
2023-04-18T16:31:05.980Z,11.79
2023-04-18T16:33:32.794Z,11.70
2023-04-18T16:36:02.514Z,11.67
2023-04-18T16:38:29.302Z,11.61
2023-04-18T16:40:57.361Z,11.40
2023-04-18T16:43:26.788Z,11.42
2023-04-18T16:45:56.387Z,11.19
2023-04-18T16:48:27.278Z,11.22
2023-04-18T16:50:53.882Z,11.02
2023-04-18T16:53:21.948Z,11.16
2023-04-18T16:55:50.400Z,10.96
2023-04-18T16:58:17.088Z,10.92
2023-04-18T17:00:43.680Z,10.95
2023-04-18T17:03:10.404Z,10.83
2023-04-18T17:05:39.355Z,10.65
2023-04-18T17:08:06.879Z,10.48
2023-04-18T17:10:33.905Z,10.54
2023-04-18T17:13:02.286Z,10.46
2023-04-18T17:15:29.078Z,10.23
2023-04-18T17:18:00.573Z,10.18
2023-04-18T17:20:28.282Z,10.08
2023-04-18T17:22:55.268Z,10.04
2023-04-18T17:25:21.893Z,9.92
2023-04-18T17:27:48.625Z,9.86
2023-04-18T17:30:15.329Z,9.68
2023-04-18T17:32:45.801Z,9.58
2023-04-18T17:35:14.683Z,9.60
2023-04-18T17:37:42.433Z,9.48
2023-04-18T17:40:10.121Z,9.38
2023-04-18T17:42:36.897Z,9.21
2023-04-18T17:45:05.311Z,9.11
2023-04-18T17:47:33.500Z,9.17
2023-04-18T17:50:00.911Z,9.07
2023-04-18T17:52:30.622Z,9.02
2023-04-18T17:54:58.155Z,8.84
2023-04-18T17:57:26.629Z,8.87
2023-04-18T17:59:53.631Z,8.73
2023-04-18T18:02:20.448Z,8.73
2023-04-18T18:04:47.240Z,8.66
2023-04-18T18:07:14.038Z,8.53
2023-04-18T18:09:44.511Z,8.54
2023-04-18T18:12:11.463Z,8.47
2023-04-18T18:14:40.069Z,8.45
2023-04-18T18:17:06.745Z,8.22
2023-04-18T18:19:35.931Z,8.07
2023-04-18T18:22:02.596Z,8.15
2023-04-18T18:24:29.289Z,8.13
2023-04-18T18:26:56.840Z,8.12
2023-04-18T18:29:23.538Z,8.01
2023-04-18T18:31:50.425Z,7.78
2023-04-18T18:34:17.215Z,7.83
2023-04-18T18:36:43.838Z,7.80
2023-04-18T18:39:11.170Z,7.79
2023-04-18T18:41:37.973Z,7.60
2023-04-18T18:44:04.801Z,7.61
2023-04-18T18:46:31.543Z,7.67
2023-04-18T18:48:58.141Z,7.56
2023-04-18T18:51:24.978Z,7.50
2023-04-18T18:53:51.598Z,7.44
2023-04-18T18:56:18.279Z,7.31
2023-04-18T18:58:44.922Z,7.29
2023-04-18T19:01:11.575Z,7.27
2023-04-18T19:03:38.533Z,7.22
2023-04-18T19:06:07.082Z,7.14
2023-04-18T19:08:34.099Z,6.96
2023-04-18T19:11:00.749Z,7.06
2023-04-18T19:13:27.341Z,7.02
2023-04-18T19:15:54.023Z,6.91
2023-04-18T19:18:21.363Z,6.94
2023-04-18T19:20:49.745Z,6.87
2023-04-18T19:23:17.335Z,6.85
2023-04-18T19:25:44.936Z,6.86
2023-04-18T19:28:12.840Z,6.88
2023-04-18T19:30:39.539Z,6.67
2023-04-18T19:33:06.229Z,6.62
2023-04-18T19:35:32.863Z,6.63
2023-04-18T19:38:02.217Z,6.63
2023-04-18T19:40:29.108Z,6.63
2023-04-18T19:42:55.687Z,6.51
2023-04-18T19:45:22.313Z,6.44
2023-04-18T19:47:49.030Z,6.48
2023-04-18T19:50:15.759Z,6.47
2023-04-18T19:52:42.514Z,6.43
2023-04-18T19:55:09.794Z,6.36
2023-04-18T19:57:39.092Z,6.25
2023-04-18T20:00:08.167Z,6.25
2023-04-18T20:02:35.015Z,6.27
2023-04-18T20:05:01.883Z,6.11
2023-04-18T20:07:28.744Z,6.17
2023-04-18T20:09:55.436Z,5.98
2023-04-18T20:12:22.232Z,6.09
2023-04-18T20:14:48.856Z,6.10
2023-04-18T20:17:15.690Z,6.08
2023-04-18T20:19:42.448Z,6.02
2023-04-18T20:22:09.111Z,5.90
2023-04-18T20:24:35.762Z,5.82
2023-04-18T20:27:03.402Z,5.82
2023-04-18T20:29:30.084Z,5.82
2023-04-18T20:31:56.831Z,5.78
2023-04-18T20:34:23.698Z,5.79
2023-04-18T20:36:52.385Z,5.76
2023-04-18T20:39:19.561Z,5.77
2023-04-18T20:41:51.166Z,5.71
2023-04-18T20:44:21.728Z,5.64
2023-04-18T20:46:48.479Z,5.59
2023-04-18T20:49:15.474Z,5.45
2023-04-18T20:51:42.327Z,5.49
2023-04-18T20:54:08.928Z,5.51
2023-04-18T20:56:38.665Z,5.60
2023-04-18T20:59:05.408Z,5.56
2023-04-18T21:01:32.062Z,5.60
2023-04-18T21:03:59.468Z,5.59
2023-04-18T21:06:28.303Z,5.56
2023-04-18T21:08:55.066Z,5.55
2023-04-18T21:11:21.778Z,5.62
2023-04-18T21:13:48.428Z,5.70
2023-04-18T21:16:15.173Z,5.60
2023-04-18T21:18:41.851Z,5.60
2023-04-18T21:21:09.025Z,5.69
2023-04-18T21:23:41.817Z,5.69
2023-04-18T21:26:13.228Z,5.58
2023-04-18T21:28:53.359Z,5.67
2023-04-18T21:31:20.018Z,5.66
2023-04-18T21:33:46.666Z,5.72
2023-04-18T21:36:13.315Z,5.70
2023-04-18T21:38:40.021Z,5.64
2023-04-18T21:41:06.750Z,5.60
2023-04-18T21:43:33.413Z,5.61
2023-04-18T21:46:00.251Z,5.60
2023-04-18T21:48:26.932Z,5.60
2023-04-18T21:50:54.870Z,5.54
2023-04-18T21:53:21.501Z,5.57
2023-04-18T21:55:48.148Z,5.61
2023-04-18T21:58:14.798Z,5.54
2023-04-18T22:00:41.475Z,5.44
2023-04-18T22:03:08.893Z,5.47
2023-04-18T22:05:37.111Z,5.59
2023-04-18T22:08:03.877Z,5.48
2023-04-18T22:10:31.012Z,5.56
2023-04-18T22:12:58.428Z,5.52
2023-04-18T22:15:26.879Z,5.61
2023-04-18T22:17:54.253Z,5.60
2023-04-18T22:20:21.587Z,5.60
2023-04-18T22:22:48.234Z,5.54
2023-04-18T22:25:14.841Z,5.57
2023-04-18T22:27:43.021Z,5.61
2023-04-18T22:30:10.078Z,5.47
2023-04-18T22:32:37.681Z,5.51
2023-04-18T22:35:04.804Z,5.49
2023-04-18T22:37:31.423Z,5.31
2023-04-18T22:39:58.032Z,5.40
2023-04-18T22:42:24.616Z,5.37
2023-04-18T22:44:51.250Z,5.35
2023-04-18T22:47:17.892Z,5.24
2023-04-18T22:49:44.541Z,5.02
2023-04-18T22:52:11.911Z,5.00
2023-04-18T22:54:39.202Z,5.00
2023-04-18T22:57:05.820Z,4.91
2023-04-18T22:59:32.451Z,4.82
2023-04-18T23:01:59.277Z,4.73
2023-04-18T23:04:29.883Z,4.74
2023-04-18T23:06:56.748Z,4.77
2023-04-18T23:09:24.451Z,4.71
2023-04-18T23:11:51.195Z,4.62
2023-04-18T23:14:17.888Z,4.48
2023-04-18T23:16:44.632Z,4.48
2023-04-18T23:19:11.270Z,4.40
2023-04-18T23:21:37.944Z,4.42
2023-04-18T23:24:04.670Z,4.37
2023-04-18T23:26:31.297Z,4.26
2023-04-18T23:28:57.939Z,4.25
2023-04-18T23:31:24.701Z,4.30
2023-04-18T23:33:51.392Z,4.28
2023-04-18T23:36:17.996Z,4.27
2023-04-18T23:38:44.563Z,4.27
2023-04-18T23:41:11.250Z,4.13
2023-04-18T23:43:37.871Z,4.17
2023-04-18T23:46:04.540Z,4.12
2023-04-18T23:48:31.241Z,3.99
2023-04-18T23:50:57.927Z,4.04
2023-04-18T23:53:25.110Z,4.02
2023-04-18T23:55:53.106Z,4.08
2023-04-18T23:58:19.719Z,3.98
